createdAt,value
2018-07-14T04:11:51.540Z,17.20
2018-07-14T04:16:46.890Z,16.80
2018-07-14T04:21:42.471Z,16.90
2018-07-14T04:26:38.177Z,17.20
2018-07-14T04:31:36.022Z,18.70
2018-07-14T04:36:31.025Z,20.30
2018-07-14T04:41:27.106Z,22.00
2018-07-14T04:46:22.287Z,23.40
2018-07-14T04:51:17.629Z,24.80
2018-07-14T04:56:12.929Z,25.20
2018-07-14T05:01:08.357Z,26.40
2018-07-14T05:06:04.624Z,27.10
2018-07-14T05:11:01.265Z,27.90
2018-07-14T05:15:57.847Z,28.00
2018-07-14T05:20:53.170Z,28.00
2018-07-14T05:25:48.377Z,27.10
2018-07-14T05:30:44.365Z,26.60
2018-07-14T05:35:39.570Z,27.60
2018-07-14T05:40:34.849Z,27.70
2018-07-14T05:45:29.837Z,26.80
2018-07-14T05:50:25.266Z,25.90
2018-07-14T05:55:20.471Z,27.60
2018-07-14T06:00:16.050Z,29.80
2018-07-14T06:10:34.825Z,32.40
2018-07-14T06:15:30.262Z,33.00
2018-07-14T06:20:26.288Z,33.60
2018-07-14T06:25:21.594Z,34.20
2018-07-14T06:35:12.191Z,34.80
2018-07-14T06:51:53.296Z,33.00
2018-07-14T06:56:48.739Z,31.30
2018-07-14T07:01:44.236Z,31.50
2018-07-14T07:06:40.001Z,31.10
2018-07-14T07:11:35.555Z,31.30
2018-07-14T07:16:30.868Z,32.50
2018-07-14T07:21:26.604Z,32.90
2018-07-14T07:26:21.888Z,32.70
2018-07-14T07:31:17.431Z,32.80
2018-07-14T07:36:12.934Z,31.70
2018-07-14T07:41:08.846Z,30.60
2018-07-14T07:46:05.578Z,30.00
2018-07-14T07:51:02.326Z,30.70
2018-07-14T07:55:57.623Z,29.90
2018-07-14T08:00:53.451Z,30.80
2018-07-14T08:10:44.442Z,35.10
2018-07-14T08:15:39.875Z,36.60
2018-07-14T08:20:35.298Z,36.90
2018-07-14T08:25:31.289Z,37.70
2018-07-14T08:30:26.823Z,38.80
2018-07-14T08:35:23.215Z,39.50
2018-07-14T08:45:14.259Z,41.60
2018-07-14T08:50:10.838Z,40.40
2018-07-14T08:55:07.648Z,41.30
2018-07-14T09:00:05.012Z,40.70
2018-07-14T09:05:00.658Z,39.30
2018-07-14T09:09:57.734Z,38.40
2018-07-14T09:19:48.168Z,37.80
2018-07-14T09:24:43.694Z,37.10
2018-07-14T09:29:41.241Z,36.90
2018-07-14T09:34:36.509Z,37.00
2018-07-14T09:39:32.166Z,38.60
2018-07-14T09:44:27.840Z,36.70
2018-07-14T09:59:15.244Z,36.20
2018-07-14T10:04:10.769Z,35.70
2018-07-14T10:09:07.139Z,35.30
2018-07-14T10:14:03.422Z,36.90
2018-07-14T10:18:59.766Z,39.20
2018-07-14T10:28:52.767Z,41.30
2018-07-14T10:33:48.545Z,41.70
2018-07-14T10:38:44.340Z,41.30
2018-07-14T10:43:39.815Z,43.10
2018-07-14T10:48:35.452Z,44.20
2018-07-14T10:53:31.105Z,44.10
2018-07-14T10:58:26.575Z,44.70
2018-07-14T11:03:22.038Z,43.90
2018-07-14T11:08:17.530Z,42.80
2018-07-14T11:13:13.001Z,38.60
2018-07-14T11:18:08.527Z,36.90
2018-07-14T11:23:04.568Z,35.60
2018-07-14T11:28:00.230Z,34.60
2018-07-14T11:32:55.918Z,33.50
2018-07-14T11:37:52.248Z,32.60
2018-07-14T11:42:47.746Z,31.90
2018-07-14T11:47:43.848Z,31.30
2018-07-14T11:52:39.458Z,31.10
2018-07-14T11:57:35.878Z,30.80
2018-07-14T12:02:31.545Z,30.60
2018-07-14T12:12:21.825Z,30.50
2018-07-14T12:17:17.627Z,30.30
2018-07-14T12:22:13.120Z,30.00
2018-07-14T12:27:09.182Z,30.00
2018-07-14T12:32:06.006Z,30.10
2018-07-14T12:37:01.584Z,30.50
2018-07-14T12:41:57.503Z,30.00
2018-07-14T12:46:56.018Z,29.20
2018-07-14T12:51:51.421Z,29.60
2018-07-14T12:56:48.059Z,29.70
2018-07-14T13:01:43.746Z,29.80
2018-07-14T13:11:35.079Z,29.60
2018-07-14T13:16:30.619Z,29.60
2018-07-14T13:21:26.798Z,29.60
2018-07-14T13:26:22.737Z,29.50
2018-07-14T13:31:18.134Z,29.40
2018-07-14T13:36:14.333Z,29.30
2018-07-14T13:41:09.713Z,28.80
2018-07-14T13:46:06.649Z,28.60
2018-07-14T13:55:57.693Z,28.60
2018-07-14T14:06:38.195Z,28.60
2018-07-14T14:11:34.622Z,28.50
2018-07-14T14:16:30.177Z,28.50
2018-07-14T14:21:25.605Z,28.50
2018-07-14T14:26:21.221Z,28.60
2018-07-14T14:31:16.583Z,28.70
2018-07-14T14:36:11.932Z,28.40
2018-07-14T14:41:08.194Z,28.10
2018-07-14T14:46:04.867Z,28.20
2018-07-14T14:51:04.446Z,28.20
2018-07-14T14:56:00.544Z,27.90
2018-07-14T15:00:56.848Z,27.70
2018-07-14T15:05:52.282Z,27.60
2018-07-14T15:10:47.797Z,27.40
2018-07-14T15:15:43.440Z,27.40
2018-07-14T15:20:39.377Z,27.40
2018-07-14T15:25:34.822Z,27.30
2018-07-14T15:35:25.338Z,27.20
2018-07-14T15:40:20.876Z,27.10
2018-07-14T15:45:16.487Z,27.00
2018-07-14T15:50:12.241Z,27.00
2018-07-14T15:55:08.678Z,27.00
2018-07-14T16:00:04.796Z,27.00
2018-07-14T16:09:55.445Z,26.90
2018-07-14T16:14:51.265Z,26.90
2018-07-14T16:19:47.157Z,26.80
2018-07-14T16:24:42.439Z,26.80
2018-07-14T16:29:38.767Z,26.70
2018-07-14T16:34:34.405Z,26.60
2018-07-14T16:39:30.363Z,26.60
2018-07-14T16:44:25.909Z,26.50
2018-07-14T16:49:21.670Z,26.30
2018-07-14T16:54:17.944Z,26.30
2018-07-14T16:59:13.469Z,26.30
2018-07-14T17:04:10.069Z,26.10
2018-07-14T17:09:09.932Z,26.00
2018-07-14T17:14:06.521Z,25.90
2018-07-14T17:19:03.028Z,25.90
2018-07-14T17:23:59.085Z,25.90
2018-07-14T17:28:56.010Z,25.90
2018-07-14T17:33:52.109Z,25.80
2018-07-14T17:38:47.739Z,25.70
2018-07-14T17:43:43.324Z,25.60
2018-07-14T17:48:39.069Z,25.50
2018-07-14T17:53:34.670Z,25.40
2018-07-14T17:58:31.088Z,25.30
2018-07-14T18:03:26.694Z,25.20
2018-07-14T18:08:22.274Z,25.00
2018-07-14T18:13:17.657Z,24.90
2018-07-14T18:23:08.689Z,24.80
2018-07-14T18:28:05.352Z,24.70
2018-07-14T18:33:00.733Z,24.60
2018-07-14T18:37:58.269Z,24.40
2018-07-14T18:42:53.734Z,24.30
2018-07-14T18:47:49.110Z,24.10
2018-07-14T18:52:45.192Z,24.00
2018-07-14T18:57:40.568Z,23.80
2018-07-14T19:02:36.614Z,23.60
2018-07-14T19:07:32.313Z,23.50
2018-07-14T19:12:27.954Z,23.30
2018-07-14T19:17:23.409Z,23.20
2018-07-14T19:22:19.271Z,23.00
2018-07-14T19:27:15.067Z,22.90
2018-07-14T19:32:10.677Z,22.80
2018-07-14T19:42:04.921Z,22.40
2018-07-14T19:47:00.529Z,22.40
2018-07-14T19:51:55.833Z,22.30
2018-07-14T19:56:51.508Z,22.30
2018-07-14T20:01:47.067Z,22.20
2018-07-14T20:06:44.534Z,22.10
2018-07-14T20:11:40.204Z,21.90
2018-07-14T20:16:35.900Z,21.70
2018-07-14T20:21:31.314Z,21.50
2018-07-14T20:26:26.730Z,21.50
2018-07-14T20:31:22.157Z,21.40
2018-07-14T20:36:17.729Z,21.30
2018-07-14T20:41:13.420Z,21.10
2018-07-14T20:46:11.212Z,20.90
2018-07-14T20:51:06.854Z,20.80
2018-07-14T20:56:03.864Z,20.60
2018-07-14T21:01:00.010Z,20.50
2018-07-14T21:05:55.900Z,20.40
2018-07-14T21:10:51.912Z,20.30
2018-07-14T21:15:47.437Z,20.20
2018-07-14T21:20:43.088Z,20.20
2018-07-14T21:25:39.065Z,20.20
2018-07-14T21:30:38.601Z,20.10
2018-07-14T21:35:34.136Z,20.10
2018-07-14T21:40:29.526Z,20.10
2018-07-14T21:45:26.225Z,20.20
2018-07-14T21:50:21.962Z,20.20
2018-07-14T21:55:17.367Z,20.10
2018-07-14T22:00:24.037Z,19.90
2018-07-14T22:05:20.346Z,19.80
2018-07-14T22:10:16.696Z,19.60
2018-07-14T22:15:12.720Z,19.50
2018-07-14T22:20:10.185Z,19.40
2018-07-14T22:25:06.512Z,19.30
2018-07-14T22:30:02.487Z,19.20
2018-07-14T22:34:58.322Z,19.10
2018-07-14T22:39:54.235Z,18.90
2018-07-14T22:44:49.604Z,18.80
2018-07-14T22:54:40.963Z,18.70
2018-07-14T22:59:36.441Z,18.70
2018-07-14T23:04:31.663Z,18.70
2018-07-14T23:09:27.439Z,18.60
2018-07-14T23:14:23.007Z,18.50
2018-07-14T23:19:19.122Z,18.40
2018-07-14T23:24:14.860Z,18.30
2018-07-14T23:29:10.417Z,18.20
2018-07-14T23:34:06.761Z,18.20
2018-07-14T23:39:02.558Z,18.10
2018-07-14T23:43:57.842Z,18.10
2018-07-14T23:48:53.750Z,18.00
2018-07-14T23:53:49.097Z,17.90
